createdAt,value
2023-05-06T00:00:23.267Z,56.3
2023-05-06T00:03:49.747Z,56.3
2023-05-06T00:05:33.144Z,56.2
2023-05-06T00:07:16.574Z,56.2
2023-05-06T00:08:59.933Z,56.2
2023-05-06T00:10:43.327Z,56.2
2023-05-06T00:12:26.726Z,56.2
2023-05-06T00:14:10.122Z,56.2
2023-05-06T00:19:19.363Z,56.1
2023-05-06T00:21:02.765Z,56.1
2023-05-06T00:22:46.153Z,56
2023-05-06T00:24:29.577Z,56
2023-05-06T00:26:12.940Z,56
2023-05-06T00:27:56.335Z,56
2023-05-06T00:29:39.789Z,56
2023-05-06T00:31:23.130Z,56
2023-05-06T00:34:49.615Z,56
2023-05-06T00:36:33.016Z,55.9
2023-05-06T00:38:16.398Z,55.9
2023-05-06T00:39:59.800Z,55.9
2023-05-06T00:41:43.193Z,55.9
2023-05-06T00:43:26.595Z,55.8
2023-05-06T00:45:09.975Z,55.9
2023-05-06T00:50:19.234Z,55.8
2023-05-06T00:52:02.630Z,55.8
2023-05-06T00:53:45.995Z,55.8
2023-05-06T00:55:29.408Z,55.8
2023-05-06T00:57:12.811Z,55.8
2023-05-06T00:58:56.191Z,55.8
2023-05-06T01:00:39.605Z,55.7
2023-05-06T01:05:48.845Z,55.7
2023-05-06T01:07:32.237Z,55.7
2023-05-06T01:09:15.637Z,55.6
2023-05-06T01:10:59.026Z,55.7
2023-05-06T01:12:42.431Z,55.7
2023-05-06T01:14:25.821Z,55.6
2023-05-06T01:16:09.233Z,55.6
2023-05-06T01:17:52.605Z,55.6
2023-05-06T01:19:36.337Z,55.6
2023-05-06T01:21:19.708Z,55.6
2023-05-06T01:23:03.111Z,55.6
2023-05-06T01:24:46.495Z,55.6
2023-05-06T01:26:29.911Z,55.5
2023-05-06T01:28:13.294Z,55.5
2023-05-06T01:29:56.701Z,55.5
2023-05-06T01:31:40.110Z,55.5
2023-05-06T01:33:23.801Z,55.5
2023-05-06T01:35:07.200Z,55.5
2023-05-06T01:36:50.588Z,55.5
2023-05-06T01:38:33.974Z,55.4
2023-05-06T01:40:17.389Z,55.4
2023-05-06T01:42:00.768Z,55.4
2023-05-06T01:43:44.176Z,55.4
2023-05-06T01:48:53.404Z,55.4
2023-05-06T01:50:36.809Z,55.4
2023-05-06T01:52:20.201Z,55.4
2023-05-06T01:54:03.608Z,55.4
2023-05-06T01:55:46.998Z,55.3
2023-05-06T01:57:30.395Z,55.4
2023-05-06T01:59:13.784Z,55.3
2023-05-06T02:02:40.257Z,55.3
2023-05-06T02:04:23.651Z,55.2
2023-05-06T02:06:07.081Z,55.2
2023-05-06T02:07:50.537Z,55.2
2023-05-06T02:09:33.846Z,55.1
2023-05-06T02:11:17.233Z,55.1
2023-05-06T02:13:00.642Z,55.1
2023-05-06T02:14:44.050Z,55.1
2023-05-06T02:18:10.496Z,55
2023-05-06T02:19:53.917Z,55
2023-05-06T02:21:37.290Z,55
2023-05-06T02:23:20.704Z,55
2023-05-06T02:25:04.095Z,55
2023-05-06T02:26:47.482Z,55
2023-05-06T02:28:30.886Z,55
2023-05-06T02:30:14.296Z,54.9
2023-05-06T02:31:57.971Z,54.9
2023-05-06T02:33:41.385Z,54.9
2023-05-06T02:35:24.767Z,54.9
2023-05-06T02:37:08.185Z,54.9
2023-05-06T02:38:51.580Z,54.9
2023-05-06T02:40:34.973Z,54.9
2023-05-06T02:42:18.354Z,54.9
2023-05-06T02:44:01.744Z,54.9
2023-05-06T02:45:45.452Z,54.9
2023-05-06T02:47:28.858Z,54.8
2023-05-06T02:49:12.238Z,54.8
2023-05-06T02:50:55.641Z,54.8
2023-05-06T02:52:39.048Z,54.8
2023-05-06T02:54:22.471Z,54.8
2023-05-06T02:56:05.830Z,54.8
2023-05-06T02:57:49.211Z,54.8
2023-05-06T03:01:15.706Z,54.8
2023-05-06T03:02:59.093Z,54.8
2023-05-06T03:04:42.491Z,54.8
2023-05-06T03:06:25.880Z,54.8
2023-05-06T03:08:09.283Z,54.8
2023-05-06T03:09:52.709Z,54.8
2023-05-06T03:11:36.073Z,54.8
2023-05-06T03:13:19.458Z,54.8
2023-05-06T03:15:03.161Z,54.8
2023-05-06T03:16:46.566Z,54.8
2023-05-06T03:18:29.957Z,54.8
2023-05-06T03:20:13.366Z,54.8
2023-05-06T03:21:56.754Z,54.8
2023-05-06T03:23:40.162Z,54.8
2023-05-06T03:25:23.554Z,54.8
2023-05-06T03:27:06.943Z,54.8
2023-05-06T03:28:50.654Z,54.9
2023-05-06T03:30:34.054Z,54.8
2023-05-06T03:32:17.456Z,54.8
2023-05-06T03:34:00.845Z,54.8
2023-05-06T03:35:44.237Z,54.8
2023-05-06T03:37:27.632Z,54.8
2023-05-06T03:39:11.022Z,54.8
2023-05-06T03:40:54.426Z,54.8
2023-05-06T03:42:38.133Z,54.8
2023-05-06T03:44:21.532Z,54.8
2023-05-06T03:46:04.919Z,54.8
2023-05-06T03:47:48.319Z,54.8
2023-05-06T03:49:31.704Z,54.8
2023-05-06T03:51:15.092Z,54.8
2023-05-06T03:52:58.493Z,54.8
2023-05-06T03:54:41.897Z,54.8
2023-05-06T03:56:25.597Z,54.8
2023-05-06T03:58:08.995Z,54.8
2023-05-06T03:59:52.386Z,54.8
2023-05-06T04:01:35.789Z,54.7
2023-05-06T04:03:19.185Z,54.7
2023-05-06T04:05:02.575Z,54.8
2023-05-06T04:06:45.967Z,54.7
2023-05-06T04:08:29.365Z,54.7
2023-05-06T04:11:55.848Z,54.7
2023-05-06T04:13:39.255Z,54.7
2023-05-06T04:15:22.636Z,54.7
2023-05-06T04:17:06.034Z,54.7
2023-05-06T04:18:49.433Z,54.6
2023-05-06T04:20:32.819Z,54.6
2023-05-06T04:22:16.212Z,54.6
2023-05-06T04:23:59.616Z,54.6
2023-05-06T04:25:43.318Z,54.6
2023-05-06T04:27:26.716Z,54.5
2023-05-06T04:29:10.112Z,54.5
2023-05-06T04:30:53.503Z,54.5
2023-05-06T04:32:36.915Z,54.5
2023-05-06T04:34:20.313Z,54.5
2023-05-06T04:36:03.699Z,54.5
2023-05-06T04:37:47.097Z,54.5
2023-05-06T04:42:56.350Z,54.4
2023-05-06T04:44:39.732Z,54.4
2023-05-06T04:46:23.126Z,54.4
2023-05-06T04:48:06.519Z,54.4
2023-05-06T04:49:49.935Z,54.4
2023-05-06T04:51:33.312Z,54.4
2023-05-06T04:53:16.718Z,54.4
2023-05-06T04:55:00.114Z,54.4
2023-05-06T04:58:26.591Z,54.4
2023-05-06T05:00:09.987Z,54.4
2023-05-06T05:01:53.372Z,54.3
2023-05-06T05:03:36.769Z,54.3
2023-05-06T05:05:20.173Z,54.3
2023-05-06T05:07:03.559Z,54.4
2023-05-06T05:08:46.973Z,54.3
2023-05-06T05:10:30.345Z,54.3
2023-05-06T05:15:39.594Z,54.3
2023-05-06T05:17:22.991Z,54.3
2023-05-06T05:19:06.382Z,54.3
2023-05-06T05:20:49.772Z,54.3
2023-05-06T05:22:33.175Z,54.3
2023-05-06T05:24:16.569Z,54.3
2023-05-06T05:25:59.967Z,54.3
2023-05-06T05:27:43.367Z,54.3
2023-05-06T05:31:09.831Z,54.3
2023-05-06T05:32:53.242Z,54.3
2023-05-06T05:34:36.650Z,54.3
2023-05-06T05:36:20.040Z,54.3
2023-05-06T05:38:03.435Z,54.3
2023-05-06T05:39:46.838Z,54.3
2023-05-06T05:41:30.209Z,54.3
2023-05-06T05:43:13.599Z,54.4
2023-05-06T05:46:40.088Z,54.4
2023-05-06T05:48:23.488Z,54.3
2023-05-06T05:50:06.868Z,54.3
2023-05-06T05:51:50.272Z,54.3
2023-05-06T05:53:33.660Z,54.3
2023-05-06T05:55:17.055Z,54.3
2023-05-06T05:57:00.472Z,54.3
2023-05-06T05:58:43.841Z,54.3
2023-05-06T06:02:10.323Z,54.3
2023-05-06T06:03:53.706Z,54.2
2023-05-06T06:05:37.134Z,54.2
2023-05-06T06:07:20.507Z,54.2
2023-05-06T06:09:03.901Z,54.2
2023-05-06T06:10:47.303Z,54.2
2023-05-06T06:12:30.711Z,54.2
2023-05-06T06:17:40.568Z,54.2
2023-05-06T06:19:23.955Z,54.2
2023-05-06T06:21:07.356Z,54.2
2023-05-06T06:22:50.755Z,54.4
2023-05-06T06:24:34.155Z,54.5
2023-05-06T06:26:17.557Z,54.5
2023-05-06T06:28:00.939Z,54.5
2023-05-06T06:29:44.333Z,54.5
2023-05-06T06:33:10.821Z,54.5
2023-05-06T06:34:54.214Z,54.5
2023-05-06T06:36:37.599Z,54.5
2023-05-06T06:38:21.000Z,54.6
2023-05-06T06:40:04.430Z,54.6
2023-05-06T06:41:47.803Z,54.6
2023-05-06T06:43:31.186Z,54.6
2023-05-06T06:45:14.588Z,54.6
2023-05-06T06:48:41.054Z,54.6
2023-05-06T06:50:24.466Z,54.6
2023-05-06T06:52:07.849Z,54.6
2023-05-06T06:53:51.270Z,54.7
2023-05-06T06:55:34.631Z,54.7
2023-05-06T06:57:18.036Z,54.7
2023-05-06T06:59:01.416Z,54.7
2023-05-06T07:00:44.815Z,54.7
2023-05-06T07:04:11.303Z,54.8
2023-05-06T07:05:54.678Z,54.8
2023-05-06T07:07:38.134Z,54.8
2023-05-06T07:09:21.490Z,54.8
2023-05-06T07:11:04.892Z,54.8
2023-05-06T07:12:48.294Z,54.7
2023-05-06T07:14:31.671Z,54.8
2023-05-06T07:17:58.140Z,54.4
2023-05-06T07:19:41.545Z,54.5
2023-05-06T07:21:24.930Z,54.6
2023-05-06T07:23:08.341Z,54.8
2023-05-06T07:24:51.734Z,54.9
2023-05-06T07:26:35.138Z,55
2023-05-06T07:28:18.512Z,55
2023-05-06T07:30:01.911Z,55
2023-05-06T07:33:28.386Z,54.9
2023-05-06T07:35:11.785Z,55
2023-05-06T07:36:55.174Z,55
2023-05-06T07:38:38.592Z,55
2023-05-06T07:40:21.983Z,55
2023-05-06T07:42:05.385Z,55.1
2023-05-06T07:43:48.761Z,55.2
2023-05-06T07:47:15.246Z,55.1
2023-05-06T07:48:58.637Z,55.2
2023-05-06T07:50:42.034Z,55.2
2023-05-06T07:52:25.429Z,55.2
2023-05-06T07:54:08.829Z,55.1
2023-05-06T07:55:52.222Z,55.1
2023-05-06T07:57:35.641Z,55.1
2023-05-06T07:59:19.004Z,55.1
2023-05-06T08:01:02.716Z,55.1
2023-05-06T08:02:46.116Z,55.1
2023-05-06T08:04:29.516Z,55.1
2023-05-06T08:06:12.901Z,55.1
2023-05-06T08:07:56.307Z,55.1
2023-05-06T08:09:39.691Z,55.1
2023-05-06T08:11:23.077Z,55.1
2023-05-06T08:13:06.485Z,55.1
2023-05-06T08:16:32.967Z,55
2023-05-06T08:18:16.353Z,55.1
2023-05-06T08:21:43.153Z,55.1
2023-05-06T08:23:26.538Z,55.1
2023-05-06T08:25:09.943Z,55
2023-05-06T08:26:53.332Z,55.1
2023-05-06T08:28:36.739Z,55.1
2023-05-06T08:32:03.200Z,55
2023-05-06T08:33:46.586Z,55.3
2023-05-06T08:35:30.008Z,55.4
2023-05-06T08:37:13.395Z,55.1
2023-05-06T08:38:56.798Z,55.1
2023-05-06T08:40:40.196Z,55.2
2023-05-06T08:42:23.594Z,55.2
2023-05-06T08:44:06.975Z,55.4
2023-05-06T08:45:50.676Z,55.3
2023-05-06T08:47:34.073Z,55.3
2023-05-06T08:49:17.478Z,55.4
2023-05-06T08:51:00.885Z,55.3
2023-05-06T08:52:44.273Z,55.3
2023-05-06T08:54:27.678Z,55.6
2023-05-06T08:56:11.061Z,55.6
2023-05-06T08:57:54.451Z,55.7
2023-05-06T09:01:20.931Z,55.6
2023-05-06T09:03:04.313Z,55.9
2023-05-06T09:04:47.719Z,55.9
2023-05-06T09:06:31.110Z,56
2023-05-06T09:08:14.519Z,55.8
2023-05-06T09:09:57.892Z,55.6
2023-05-06T09:11:41.303Z,55.6
2023-05-06T09:16:50.573Z,55.5
2023-05-06T09:18:33.954Z,55.4
2023-05-06T09:20:17.340Z,55.4
2023-05-06T09:22:00.767Z,55.5
2023-05-06T09:23:44.124Z,55.5
2023-05-06T09:25:27.545Z,55.6
2023-05-06T09:27:10.932Z,55.8
2023-05-06T09:32:20.180Z,55.8
2023-05-06T09:34:03.569Z,55.7
2023-05-06T09:35:46.961Z,56
2023-05-06T09:37:30.354Z,56
2023-05-06T09:39:13.750Z,55.8
2023-05-06T09:40:57.150Z,55.8
2023-05-06T09:42:40.535Z,55.9
2023-05-06T09:47:49.780Z,55.6
2023-05-06T09:49:33.170Z,55.6
2023-05-06T09:51:16.574Z,55.5
2023-05-06T09:52:59.995Z,55.5
2023-05-06T09:54:43.375Z,55.5
2023-05-06T09:56:26.791Z,55.7
2023-05-06T09:58:10.162Z,55.7
2023-05-06T09:59:53.553Z,55.6
2023-05-06T10:03:20.029Z,55.7
2023-05-06T10:05:03.410Z,55.6
2023-05-06T10:06:46.828Z,55.6
2023-05-06T10:08:30.230Z,55.6
2023-05-06T10:10:13.622Z,55.6
2023-05-06T10:11:57.021Z,55.5
2023-05-06T10:13:40.399Z,55.6
2023-05-06T10:18:49.643Z,55.6
2023-05-06T10:20:33.042Z,55.6
2023-05-06T10:22:16.447Z,55.6
2023-05-06T10:23:59.832Z,55.6
2023-05-06T10:25:43.231Z,55.6
2023-05-06T10:27:26.626Z,55.8
2023-05-06T10:29:10.021Z,55.8
2023-05-06T10:32:36.496Z,55.7
2023-05-06T10:34:19.888Z,55.8
2023-05-06T10:36:03.296Z,55.8
2023-05-06T10:37:46.692Z,55.5
2023-05-06T10:39:30.072Z,55.4
2023-05-06T10:41:13.466Z,55.3
2023-05-06T10:42:56.909Z,55.3
2023-05-06T10:48:06.106Z,55.3
2023-05-06T10:49:49.485Z,55.4
2023-05-06T10:51:32.913Z,55.5
2023-05-06T10:53:16.292Z,55.5
2023-05-06T10:54:59.684Z,55.3
2023-05-06T11:01:52.931Z,54.5
2023-05-06T11:03:36.349Z,54.3
2023-05-06T11:05:19.747Z,53.8
2023-05-06T11:07:03.171Z,53.1
2023-05-06T11:08:46.542Z,53
2023-05-06T11:10:29.943Z,53.2
2023-05-06T11:12:13.331Z,53.2
2023-05-06T11:15:39.792Z,52.9
2023-05-06T11:17:23.194Z,52.5
2023-05-06T11:19:06.618Z,51.9
2023-05-06T11:20:49.985Z,51.7
2023-05-06T11:22:33.382Z,51.8
2023-05-06T11:24:16.776Z,51.8
2023-05-06T11:26:00.172Z,51.9
2023-05-06T11:31:09.416Z,51.9
2023-05-06T11:32:52.818Z,52
2023-05-06T11:34:36.204Z,52
2023-05-06T11:36:19.623Z,52
2023-05-06T11:38:02.996Z,52.1
2023-05-06T11:39:46.416Z,52.1
2023-05-06T11:41:29.823Z,52.2
2023-05-06T11:44:56.278Z,52.3
2023-05-06T11:46:39.652Z,52.3
2023-05-06T11:48:23.075Z,52.3
2023-05-06T11:50:06.462Z,52.3
2023-05-06T11:51:49.841Z,52.4
2023-05-06T11:53:33.270Z,52.4
2023-05-06T11:55:16.631Z,52.4
2023-05-06T11:58:43.124Z,52.5
2023-05-06T12:00:26.503Z,52.6
2023-05-06T12:02:10.025Z,52.6
2023-05-06T12:03:53.298Z,52.6
2023-05-06T12:05:36.697Z,52.6
2023-05-06T12:07:20.126Z,52.6
2023-05-06T12:09:03.505Z,52.6
2023-05-06T12:10:46.883Z,52.7
2023-05-06T12:12:30.601Z,52.7
2023-05-06T12:14:14.000Z,52.7
2023-05-06T12:15:57.380Z,52.7
2023-05-06T12:17:40.789Z,52.7
2023-05-06T12:19:24.170Z,52.7
2023-05-06T12:21:07.567Z,52.8
2023-05-06T12:22:50.981Z,52.8
2023-05-06T12:24:34.365Z,52.8
2023-05-06T12:26:18.066Z,52.8
2023-05-06T12:28:01.486Z,52.8
2023-05-06T12:29:44.853Z,52.8
2023-05-06T12:31:28.260Z,52.8
2023-05-06T12:33:11.663Z,52.8
2023-05-06T12:34:55.070Z,52.8
2023-05-06T12:36:38.446Z,52.9
2023-05-06T12:41:47.699Z,52.9
2023-05-06T12:43:31.077Z,52.9
2023-05-06T12:45:14.478Z,52.9
2023-05-06T12:46:57.885Z,52.9
2023-05-06T12:48:41.316Z,52.9
2023-05-06T12:50:24.697Z,52.9
2023-05-06T12:52:08.054Z,53
2023-05-06T12:55:34.540Z,53
2023-05-06T12:57:17.938Z,53
2023-05-06T12:59:01.323Z,53
2023-05-06T13:00:44.735Z,53
2023-05-06T13:02:28.121Z,53
2023-05-06T13:04:11.532Z,53
2023-05-06T13:05:54.917Z,53
2023-05-06T13:11:04.186Z,53
2023-05-06T13:12:47.551Z,53
2023-05-06T13:14:30.940Z,53.1
2023-05-06T13:16:14.358Z,53
2023-05-06T13:17:57.738Z,53.1
2023-05-06T13:19:41.139Z,53
2023-05-06T13:21:24.544Z,53
2023-05-06T13:24:51.011Z,53
2023-05-06T13:26:34.412Z,53.1
2023-05-06T13:28:17.789Z,53
2023-05-06T13:30:01.204Z,53
2023-05-06T13:31:44.593Z,53
2023-05-06T13:33:27.993Z,53
2023-05-06T13:35:11.369Z,53
2023-05-06T13:38:37.860Z,53
2023-05-06T13:40:21.235Z,53
2023-05-06T13:42:04.647Z,53
2023-05-06T13:43:48.055Z,53
2023-05-06T13:45:31.439Z,53
2023-05-06T13:47:14.855Z,53
2023-05-06T13:48:58.232Z,53
2023-05-06T13:54:07.487Z,53
2023-05-06T13:55:50.858Z,53.1
2023-05-06T13:57:34.275Z,53.1
2023-05-06T13:59:17.777Z,53.1
2023-05-06T14:01:01.046Z,53.1
2023-05-06T14:02:44.454Z,53.1
2023-05-06T14:04:27.847Z,53.2
2023-05-06T14:07:54.329Z,53.8
2023-05-06T14:09:37.729Z,54.2
2023-05-06T14:11:21.139Z,54.4
2023-05-06T14:13:04.518Z,54.3
2023-05-06T14:14:47.911Z,54.2
2023-05-06T14:16:31.304Z,54.6
2023-05-06T14:18:14.686Z,54.8
2023-05-06T14:19:58.085Z,54.4
2023-05-06T14:21:41.807Z,54.5
2023-05-06T14:23:25.204Z,54.2
2023-05-06T14:25:08.607Z,54.1
2023-05-06T14:26:51.986Z,54
2023-05-06T14:28:35.396Z,54
2023-05-06T14:30:18.788Z,53.8
2023-05-06T14:32:02.178Z,53.6
2023-05-06T14:37:11.413Z,54.2
2023-05-06T14:38:54.816Z,54.2
2023-05-06T14:40:38.227Z,54.2
2023-05-06T14:42:21.598Z,54.2
2023-05-06T14:44:05.003Z,54.1
2023-05-06T14:45:48.388Z,54.1
2023-05-06T14:47:31.796Z,54.2
2023-05-06T14:52:41.043Z,54.3
2023-05-06T14:54:24.421Z,54.4
2023-05-06T14:56:07.829Z,54.3
2023-05-06T14:57:51.220Z,54.4
2023-05-06T14:59:34.628Z,54.4
2023-05-06T15:01:18.008Z,54.3
2023-05-06T15:03:01.424Z,54.2
2023-05-06T15:06:27.873Z,54.3
2023-05-06T15:08:11.278Z,54.3
2023-05-06T15:09:54.682Z,54.2
2023-05-06T15:11:38.065Z,54.3
2023-05-06T15:13:21.456Z,54.3
2023-05-06T15:15:04.856Z,54.4
2023-05-06T15:16:48.251Z,54.4
2023-05-06T15:21:57.495Z,54.4
2023-05-06T15:23:40.897Z,54.4
2023-05-06T15:25:24.297Z,54.4
2023-05-06T15:27:07.687Z,54.4
2023-05-06T15:28:51.071Z,54.4
2023-05-06T15:30:34.491Z,54.4
2023-05-06T15:32:17.890Z,54.3
2023-05-06T15:35:44.367Z,54.4
2023-05-06T15:37:27.781Z,54.4
2023-05-06T15:39:11.141Z,54.4
2023-05-06T15:40:54.544Z,54.4
2023-05-06T15:42:37.928Z,54.5
2023-05-06T15:44:21.345Z,54.4
2023-05-06T15:46:04.732Z,54.4
2023-05-06T15:51:13.961Z,54.5
2023-05-06T15:52:57.378Z,54.5
2023-05-06T15:54:40.766Z,54.5
2023-05-06T15:56:24.170Z,54.6
2023-05-06T15:58:07.562Z,54.6
2023-05-06T15:59:50.950Z,54.6
2023-05-06T16:01:34.362Z,54.7
2023-05-06T16:03:17.746Z,54.7
2023-05-06T16:05:01.444Z,54.7
2023-05-06T16:06:44.832Z,54.8
2023-05-06T16:08:28.248Z,54.7
2023-05-06T16:10:11.634Z,54.7
2023-05-06T16:11:55.030Z,54.7
2023-05-06T16:13:38.427Z,54.7
2023-05-06T16:15:21.819Z,54.7
2023-05-06T16:18:48.304Z,54.7
2023-05-06T16:20:31.696Z,54.7
2023-05-06T16:22:15.091Z,54.7
2023-05-06T16:23:58.468Z,54.7
2023-05-06T16:25:41.872Z,54.8
2023-05-06T16:27:25.276Z,54.9
2023-05-06T16:29:08.674Z,54.9
2023-05-06T16:32:35.143Z,55
2023-05-06T16:34:18.537Z,55
2023-05-06T16:36:01.932Z,55.1
2023-05-06T16:37:45.327Z,55.1
2023-05-06T16:39:28.737Z,55.2
2023-05-06T16:41:12.124Z,55.2
2023-05-06T16:42:55.527Z,55.2
2023-05-06T16:48:04.770Z,55.3
2023-05-06T16:49:48.159Z,55.3
2023-05-06T16:51:31.570Z,55.4
2023-05-06T16:53:14.942Z,55.3
2023-05-06T16:54:58.349Z,55.3
2023-05-06T16:56:41.757Z,55.3
2023-05-06T16:58:25.149Z,55.3
2023-05-06T17:01:51.612Z,55.3
2023-05-06T17:03:34.999Z,55.4
2023-05-06T17:05:18.427Z,55.4
2023-05-06T17:07:01.820Z,55.4
2023-05-06T17:08:45.207Z,55.5
2023-05-06T17:10:28.588Z,55.6
2023-05-06T17:12:11.999Z,55.5
2023-05-06T17:15:38.475Z,55.6
2023-05-06T17:17:21.875Z,55.6
2023-05-06T17:19:05.256Z,55.6
2023-05-06T17:20:48.644Z,55.7
2023-05-06T17:22:32.035Z,55.6
2023-05-06T17:24:15.442Z,55.6
2023-05-06T17:25:58.996Z,55.6
2023-05-06T17:29:25.480Z,55.6
2023-05-06T17:31:08.951Z,55.5
2023-05-06T17:32:52.288Z,55.5
2023-05-06T17:34:35.681Z,55.5
2023-05-06T17:36:19.146Z,55.5
2023-05-06T17:38:02.449Z,55.5
2023-05-06T17:39:45.893Z,55.6
2023-05-06T17:43:12.385Z,55.6
2023-05-06T17:46:39.129Z,55.6
2023-05-06T17:48:22.470Z,55.6
2023-05-06T17:50:05.916Z,55.6
2023-05-06T17:51:49.303Z,55.6
2023-05-06T17:53:32.720Z,55.6
2023-05-06T17:56:59.187Z,55.7
2023-05-06T17:58:42.672Z,55.7
2023-05-06T18:00:25.982Z,55.7
2023-05-06T18:02:09.421Z,55.6
2023-05-06T18:03:52.619Z,55.6
2023-05-06T18:05:36.032Z,55.6
2023-05-06T18:07:19.534Z,55.6
2023-05-06T18:10:46.059Z,55.6
2023-05-06T18:12:29.435Z,55.6
2023-05-06T18:14:12.853Z,55.6
2023-05-06T18:15:56.234Z,55.7
2023-05-06T18:17:39.625Z,55.7
2023-05-06T18:19:23.111Z,55.7
2023-05-06T18:21:06.500Z,55.7
2023-05-06T18:26:15.649Z,55.8
2023-05-06T18:27:59.089Z,55.8
2023-05-06T18:29:42.483Z,55.8
2023-05-06T18:31:25.931Z,55.8
2023-05-06T18:33:09.276Z,55.8
2023-05-06T18:34:52.685Z,55.8
2023-05-06T18:36:36.067Z,55.8
2023-05-06T18:40:02.351Z,55.8
2023-05-06T18:41:45.752Z,55.8
2023-05-06T18:43:29.238Z,55.8
2023-05-06T18:45:12.649Z,55.8
2023-05-06T18:46:56.101Z,55.8
2023-05-06T18:48:39.359Z,55.8
2023-05-06T18:50:22.893Z,55.8
2023-05-06T18:53:49.426Z,55.9
2023-05-06T18:55:32.716Z,55.9
2023-05-06T18:57:16.123Z,55.8
2023-05-06T18:58:59.600Z,55.8
2023-05-06T19:00:42.913Z,55.8
2023-05-06T19:02:26.351Z,55.9
2023-05-06T19:04:09.601Z,55.9
2023-05-06T19:07:36.236Z,55.8
2023-05-06T19:09:19.553Z,55.9
2023-05-06T19:11:03.029Z,55.9
2023-05-06T19:12:46.341Z,55.9
2023-05-06T19:14:29.751Z,55.8
2023-05-06T19:16:13.197Z,55.8
2023-05-06T19:17:56.646Z,55.8
2023-05-06T19:21:23.093Z,55.9
2023-05-06T19:23:06.522Z,55.9
2023-05-06T19:24:49.888Z,55.8
2023-05-06T19:26:33.159Z,55.8
2023-05-06T19:28:16.635Z,55.8
2023-05-06T19:30:00.073Z,55.8
2023-05-06T19:31:43.502Z,55.8
2023-05-06T19:35:09.942Z,55.8
2023-05-06T19:36:53.319Z,55.8
2023-05-06T19:38:36.801Z,55.8
2023-05-06T19:40:20.227Z,55.8
2023-05-06T19:42:03.373Z,55.8
2023-05-06T19:43:46.931Z,55.8
2023-05-06T19:45:30.294Z,55.7
2023-05-06T19:47:13.706Z,55.7
2023-05-06T19:48:57.394Z,55.7
2023-05-06T19:50:40.832Z,55.7
2023-05-06T19:52:24.246Z,55.7
2023-05-06T19:54:07.614Z,55.7
2023-05-06T19:55:51.042Z,55.7
2023-05-06T19:57:34.328Z,55.7
2023-05-06T19:59:17.826Z,55.7
2023-05-06T20:01:01.196Z,55.7
2023-05-06T20:02:44.865Z,55.7
2023-05-06T20:04:28.255Z,55.7
2023-05-06T20:06:11.571Z,55.7
2023-05-06T20:07:55.073Z,55.7
2023-05-06T20:09:38.477Z,55.7
2023-05-06T20:11:21.882Z,55.7
2023-05-06T20:13:05.317Z,55.6
2023-05-06T20:16:31.772Z,55.6
2023-05-06T20:18:15.207Z,55.6
2023-05-06T20:19:58.543Z,55.6
2023-05-06T20:21:41.908Z,55.6
2023-05-06T20:23:25.344Z,55.6
2023-05-06T20:25:08.581Z,55.6
2023-05-06T20:26:52.157Z,55.6
2023-05-06T20:32:01.380Z,55.6
2023-05-06T20:33:44.769Z,55.6
2023-05-06T20:35:28.274Z,55.6
2023-05-06T20:37:11.560Z,55.6
2023-05-06T20:38:54.818Z,55.6
2023-05-06T20:40:38.410Z,55.5
2023-05-06T20:42:21.752Z,55.5
2023-05-06T20:45:48.188Z,55.4
2023-05-06T20:47:31.572Z,55.5
2023-05-06T20:49:15.007Z,55.6
2023-05-06T20:50:58.447Z,55.5
2023-05-06T20:52:41.796Z,55.6
2023-05-06T20:54:25.183Z,55.5
2023-05-06T20:56:08.426Z,55.4
2023-05-06T20:59:35.076Z,55.2
2023-05-06T21:01:18.406Z,55.4
2023-05-06T21:03:01.868Z,55.4
2023-05-06T21:04:45.087Z,55.4
2023-05-06T21:06:28.491Z,55.5
2023-05-06T21:08:12.034Z,55.3
2023-05-06T21:09:55.432Z,55.3
2023-05-06T21:13:21.757Z,55.6
2023-05-06T21:15:05.148Z,55.6
2023-05-06T21:16:48.729Z,55.8
2023-05-06T21:18:32.054Z,56
2023-05-06T21:20:15.571Z,56.1
2023-05-06T21:21:58.875Z,56.1
2023-05-06T21:23:42.299Z,56.1
2023-05-06T21:27:08.765Z,56.2
2023-05-06T21:28:52.100Z,56.1
2023-05-06T21:30:35.381Z,56.1
2023-05-06T21:32:19.018Z,56.1
2023-05-06T21:34:02.369Z,56.2
2023-05-06T21:35:45.739Z,56.2
2023-05-06T21:37:28.975Z,56.2
2023-05-06T21:40:55.658Z,56.2
2023-05-06T21:42:38.968Z,56.1
2023-05-06T21:44:22.464Z,56.1
2023-05-06T21:46:05.636Z,56.1
2023-05-06T21:47:49.248Z,56.2
2023-05-06T21:49:32.440Z,56.2
2023-05-06T21:51:16.014Z,56.2
2023-05-06T21:52:59.401Z,56.1
2023-05-06T21:54:43.110Z,56.1
2023-05-06T21:56:26.506Z,56
2023-05-06T21:58:09.917Z,56.1
2023-05-06T21:59:53.303Z,56
2023-05-06T22:01:36.741Z,56
2023-05-06T22:03:20.113Z,56
2023-05-06T22:05:03.313Z,56
2023-05-06T22:06:46.857Z,56
2023-05-06T22:08:30.571Z,55.9
2023-05-06T22:10:13.874Z,55.9
2023-05-06T22:11:57.331Z,55.9
2023-05-06T22:13:40.772Z,55.9
2023-05-06T22:15:24.145Z,55.9
2023-05-06T22:17:07.564Z,55.9
2023-05-06T22:18:50.952Z,55.8
2023-05-06T22:22:17.449Z,55.8
2023-05-06T22:24:00.862Z,55.8
2023-05-06T22:25:44.193Z,55.8
2023-05-06T22:27:27.671Z,55.8
2023-05-06T22:29:11.001Z,55.8
2023-05-06T22:30:54.380Z,55.8
2023-05-06T22:32:37.816Z,55.8
2023-05-06T22:37:47.047Z,55.7
2023-05-06T22:39:30.475Z,55.7
2023-05-06T22:41:13.924Z,55.7
2023-05-06T22:42:57.216Z,55.7
2023-05-06T22:44:40.519Z,55.7
2023-05-06T22:46:24.035Z,55.6
2023-05-06T22:48:07.459Z,55.6
2023-05-06T22:51:33.908Z,55.6
2023-05-06T22:53:17.314Z,55.6
2023-05-06T22:55:00.661Z,55.6
2023-05-06T22:56:44.122Z,55.6
2023-05-06T22:58:27.487Z,55.6
2023-05-06T23:00:10.878Z,55.6
2023-05-06T23:01:54.267Z,55.6
2023-05-06T23:03:37.700Z,55.5
2023-05-06T23:05:21.374Z,55.6
2023-05-06T23:07:04.708Z,55.6
2023-05-06T23:08:48.218Z,55.6
2023-05-06T23:10:31.471Z,55.6
2023-05-06T23:12:14.918Z,55.6
2023-05-06T23:13:58.393Z,55.5
2023-05-06T23:15:41.765Z,55.5
2023-05-06T23:17:25.165Z,55.5
2023-05-06T23:19:08.850Z,55.5
2023-05-06T23:20:52.361Z,55.5
2023-05-06T23:22:35.470Z,55.5
2023-05-06T23:24:19.050Z,55.5
2023-05-06T23:26:02.385Z,55.6
2023-05-06T23:27:45.656Z,56
2023-05-06T23:29:29.153Z,55.6
2023-05-06T23:31:12.574Z,55.4
2023-05-06T23:34:38.995Z,55.1
2023-05-06T23:36:22.318Z,55
2023-05-06T23:38:05.731Z,55
2023-05-06T23:39:49.110Z,55
2023-05-06T23:41:32.508Z,55.1
2023-05-06T23:43:15.928Z,55.1
2023-05-06T23:44:59.308Z,55.1
2023-05-06T23:46:42.719Z,55.1
2023-05-06T23:48:26.427Z,55.1
2023-05-06T23:50:09.996Z,55
2023-05-06T23:51:53.207Z,55
2023-05-06T23:53:36.593Z,55
2023-05-06T23:55:20.144Z,55
2023-05-06T23:57:03.453Z,55
2023-05-06T23:58:46.794Z,55
